New Point, Indiana
Current Conditions -  °F | °C
As of 9:15 PM on Sunday 25 Jan 2015 (Local Time) from KI67 Reporting Station
Overcast Overcast  
Wind Chill: -2°   Ceiling: 700
Heat Index:   Visibility: 7mi
Dew Point:   Wind: 10mph
Humidity: 93%   Direction: 30°NNE
Pressure: 29.71"   Gusts: NA
Location:  39.31°N, 85.33°W
Report Text: KI67 260215Z AUTO 03009KT 7SM OVC007 02/01 A2971 RMK AO1
Loading
Personal Weather Stations






























Interactive Weather Map New forecast layout! Learn more

10-Day Weather Forecast

Advertisements
Track Severe Weather on mobile